This is the latest recevied weather packets stored in our database for station/object BMCB-35. If no packets are shown the sender has not sent any weather packets the latest 10 day(s).
| Time | Temp. | Humidity | Pressure | Rain* | Wind** | Luminosity | Snow |
|---|---|---|---|---|---|---|---|
| 1777342814 | 10.56° C | 58% | 1018 hPa | 0 mm | - | 0 W/m² | - |
| 1777342813 | 11.11° C | 58% | 1018 hPa | 0 mm | - | 0 W/m² | - |
| 1777341025 | 11.67° C | 56% | 1018.1 hPa | 0 mm | - | 0 W/m² | - |
| 1777339214 | 11.11° C | 60% | 1018.2 hPa | 0 mm | - | 0 W/m² | - |
| 1777337408 | 11.67° C | 58% | 1018.4 hPa | 0 mm | - | 0 W/m² | - |
| 1777336816 | 12.22° C | 56% | 1018.4 hPa | 0 mm | - | 0 W/m² | - |
| 1777336244 | 12.22° C | 54% | 1018.5 hPa | 0 mm | - | 0 W/m² | - |
| 1777326606 | 12.22° C | 57% | 1018.9 hPa | 0 mm | - | 0 W/m² | - |
| 1777322405 | 13.89° C | 57% | 1018.7 hPa | 0 mm | - | 0 W/m² | - |
| 1777321809 | 13.89° C | 57% | 1018.7 hPa | 0 mm | - | 0 W/m² | - |
| 1777315837 | 16.67° C | 47% | 1018.4 hPa | 0 mm | - | 0 W/m² | - |
| 1777315241 | 16.67° C | 47% | 1018.4 hPa | 0 mm | - | 0 W/m² | - |
| 1777315234 | 17.22° C | 46% | 1018.3 hPa | 0 mm | - | 7 W/m² | - |
| 1777314611 | 17.78° C | 44% | 1018.3 hPa | 0 mm | - | 14 W/m² | - |
| 1777312237 | 19.44° C | 35% | 1018.4 hPa | 0 mm | - | 62 W/m² | - |
| 1777307447 | 20.56° C | 29% | 1018.6 hPa | 0 mm | - | 222 W/m² | - |
| 1777305612 | 20° C | 30% | 1018.8 hPa | 0 mm | - | 257 W/m² | - |
| 1777304404 | 20° C | 30% | 1019 hPa | 0 mm | - | 289 W/m² | - |
| 1777303805 | 20.56° C | 29% | 1019 hPa | 0 mm | - | 280 W/m² | - |
| 1777302637 | 21.11° C | 28% | 1019.3 hPa | 0 mm | - | 484 W/m² | - |
| 1777302040 | 20.56° C | 29% | 1019.5 hPa | 0 mm | - | 507 W/m² | - |
| 1777301404 | 20.56° C | 30% | 1019.6 hPa | 0 mm | - | 410 W/m² | - |
| 1777300215 | 20° C | 30% | 1019.9 hPa | 0 mm | - | 350 W/m² | - |
| 1777299633 | 20° C | 29% | 1019.9 hPa | 0 mm | - | 416 W/m² | - |
| 1777299037 | 20° C | 29% | 1019.9 hPa | 0 mm | - | 572 W/m² | - |
* Rain latest hour (hover to see other rain measurements)
** Current wind speed in m/s (hover to see current wind gust speed)